Time;durP1;ratioP1;P1;durP2;ratioP2;P2;SDS_P1;SDS_P2;PMS_P1;PMS_P2;Temp;Humidity;BMP_temperature;BMP_pressure;BME280_temperature;BME280_humidity;BME280_pressure;Samples;Min_cycle;Max_cycle;Signal;HPM_P1;HPM_P2
2022/11/19 00:01:56;;;;;;;;;;;;;;;11.51;67.11;99663.44;5054919;28;19917;-81
2022/11/19 00:04:40;;;;;;;;;;;;;;;11.42;66.90;99655.44;5029682;28;19925;-82
2022/11/19 00:07:25;;;;;;;;;;;;;;;11.61;66.62;99664.88;5035707;28;19917;-82
2022/11/19 00:10:09;;;;;;;;;;;;;;;11.58;66.45;99663.63;5034884;28;19921;-83
2022/11/19 00:12:53;;;;;;;;;;;;;;;11.50;66.06;99664.59;5034817;28;19918;-82
2022/11/19 00:15:38;;;;;;;;;;;;;;;11.15;66.54;99651.56;5036273;28;19917;-84
2022/11/19 00:18:23;;;;;;;;;;;;;;;11.24;66.89;99651.41;5033918;28;19917;-82
2022/11/19 00:21:08;;;;;;;;;;;;;;;11.21;66.87;99648.59;5038039;28;19917;-83
2022/11/19 00:23:53;;;;;;;;;;;;;;;11.28;67.09;99649.59;5039991;28;19917;-81
2022/11/19 00:26:38;;;;;;;;;;;;;;;11.32;66.48;99646.97;5033579;28;19917;-81
2022/11/19 00:29:22;;;;;;;;;;;;;;;11.20;66.57;99647.00;5034640;28;19917;-81
2022/11/19 00:32:06;;;;;;;;;;;;;;;11.33;66.78;99645.81;5034248;28;19917;-82
2022/11/19 00:34:51;;;;;;;;;;;;;;;11.39;66.40;99641.72;5034067;28;19917;-81
2022/11/19 00:37:36;;;;;;;;;;;;;;;11.33;66.08;99634.94;5037612;28;19917;-81
2022/11/19 00:40:20;;;;;;;;;;;;;;;11.19;66.75;99635.31;5039148;28;19950;-82
2022/11/19 00:46:27;;;;;;;;;;;;;;;11.06;67.36;99641.97;5034697;28;19925;-82
2022/11/19 00:49:12;;;;;;;;;;;;;;;11.15;67.05;99657.00;5034238;28;20325;-83
2022/11/19 00:51:57;;;;;;;;;;;;;;;11.02;67.34;99658.16;5037584;28;19917;-81
2022/11/19 00:54:41;;;;;;;;;;;;;;;11.02;67.15;99657.38;5036155;28;19917;-80
2022/11/19 00:57:25;;;;;;;;;;;;;;;11.18;66.22;99650.06;5013637;28;19917;-80
2022/11/19 01:00:10;;;;;;;;;;;;;;;11.20;66.72;99647.81;5013148;28;19921;-80
2022/11/19 01:02:56;;;;;;;;;;;;;;;11.24;66.81;99653.34;5038763;28;19924;-81
2022/11/19 01:05:40;;;;;;;;;;;;;;;11.17;67.07;99667.56;5028483;28;19925;-79
2022/11/19 01:08:25;;;;;;;;;;;;;;;11.22;67.04;99666.50;5026922;28;20390;-80
2022/11/19 01:11:12;;;;;;;;;;;;;;;11.22;66.87;99666.50;5013402;28;19922;-80
2022/11/19 01:13:57;;;;;;;;;;;;;;;11.17;66.76;99664.03;5026293;28;19917;-80
2022/11/19 01:16:42;;;;;;;;;;;;;;;11.22;66.30;99658.34;5032487;28;19917;-80
2022/11/19 01:19:26;;;;;;;;;;;;;;;11.12;66.76;99663.13;5036876;28;19917;-79
2022/11/19 01:22:11;;;;;;;;;;;;;;;10.97;67.40;99666.56;5034221;28;19921;-79
2022/11/19 01:24:57;;;;;;;;;;;;;;;10.96;67.44;99670.44;5012883;28;20318;-79
2022/11/19 01:27:42;;;;;;;;;;;;;;;11.05;67.02;99662.94;5027959;28;19917;-83
2022/11/19 01:30:27;;;;;;;;;;;;;;;11.00;67.06;99665.88;5036336;28;20309;-83
2022/11/19 01:33:11;;;;;;;;;;;;;;;10.96;66.98;99680.53;5035889;28;19917;-82
2022/11/19 01:35:57;;;;;;;;;;;;;;;10.99;66.78;99680.63;5035234;28;19917;-83
2022/11/19 01:38:41;;;;;;;;;;;;;;;10.87;67.05;99686.06;5035333;28;19921;-82
2022/11/19 01:41:27;;;;;;;;;;;;;;;10.90;66.97;99687.31;5015422;28;19917;-83
2022/11/19 01:44:30;;;;;;;;;;;;;;;10.84;67.02;99686.75;5050127;28;19917;-82
2022/11/19 01:47:15;;;;;;;;;;;;;;;10.77;67.51;99688.47;5036205;28;19917;-81
2022/11/19 01:49:59;;;;;;;;;;;;;;;10.91;66.62;99684.28;5028677;28;19928;-82
2022/11/19 01:52:43;;;;;;;;;;;;;;;10.93;66.14;99687.41;5037355;28;19917;-82
2022/11/19 01:55:28;;;;;;;;;;;;;;;10.86;66.70;99689.94;5036569;28;20305;-82
2022/11/19 01:58:15;;;;;;;;;;;;;;;10.78;66.33;99679.97;5034254;28;19917;-83
2022/11/19 02:01:00;;;;;;;;;;;;;;;10.82;66.66;99680.84;5037939;28;19917;-80
2022/11/19 02:03:45;;;;;;;;;;;;;;;10.93;66.66;99690.13;5035938;28;19999;-80
2022/11/19 02:06:32;;;;;;;;;;;;;;;10.90;66.92;99676.44;5033832;28;19922;-79
2022/11/19 02:09:16;;;;;;;;;;;;;;;10.92;66.97;99683.09;5037325;28;19917;-80
2022/11/19 02:12:20;;;;;;;;;;;;;;;10.95;66.28;99682.44;5033589;28;19921;-83
2022/11/19 02:15:14;;;;;;;;;;;;;;;10.95;67.53;99677.00;5032734;28;19917;-82
2022/11/19 02:18:10;;;;;;;;;;;;;;;10.96;67.01;99675.88;5033205;28;19909;-80
2022/11/19 02:21:01;;;;;;;;;;;;;;;10.99;66.95;99677.09;5033477;28;19917;-83
2022/11/19 02:23:58;;;;;;;;;;;;;;;11.11;66.66;99677.09;5035827;28;19917;-83
2022/11/19 02:26:42;;;;;;;;;;;;;;;11.20;66.14;99679.66;5035082;28;19921;-83
2022/11/19 02:29:32;;;;;;;;;;;;;;;11.17;66.26;99680.38;5013206;28;19917;-80
2022/11/19 02:32:21;;;;;;;;;;;;;;;11.25;65.84;99676.69;5016615;28;19918;-81
2022/11/19 02:35:25;;;;;;;;;;;;;;;11.09;66.23;99677.41;5014818;28;19917;-82
2022/11/19 02:38:22;;;;;;;;;;;;;;;11.12;65.71;99668.56;5027572;28;19921;-80
2022/11/19 02:41:34;;;;;;;;;;;;;;;11.13;65.07;99672.88;5034772;28;19917;-82
2022/11/19 02:45:01;;;;;;;;;;;;;;;11.17;64.91;99675.72;5031884;28;19917;-81
2022/11/19 02:47:51;;;;;;;;;;;;;;;11.08;64.96;99670.38;5032031;28;19918;-81
2022/11/19 02:50:42;;;;;;;;;;;;;;;10.92;64.74;99683.09;5032211;28;19917;-82
2022/11/19 02:53:26;;;;;;;;;;;;;;;10.95;64.93;99682.44;5037918;28;19917;-83
2022/11/19 02:56:12;;;;;;;;;;;;;;;10.91;64.75;99687.00;5033687;28;19917;-83
2022/11/19 03:05:07;;;;;;;;;;;;;;;10.91;65.14;99686.19;5034307;28;19921;-80
2022/11/19 03:07:52;;;;;;;;;;;;;;;11.11;64.68;99688.75;5038515;28;20322;-83
2022/11/19 03:10:56;;;;;;;;;;;;;;;10.95;64.71;99696.03;5037308;28;19917;-82
2022/11/19 03:17:12;;;;;;;;;;;;;;;11.00;64.47;99700.44;5035248;28;19917;-80
2022/11/19 03:20:07;;;;;;;;;;;;;;;11.11;63.97;99705.09;5039474;28;20390;-83
2022/11/19 03:23:11;;;;;;;;;;;;;;;11.01;64.13;99705.56;5043738;28;20397;-81
2022/11/19 03:26:00;;;;;;;;;;;;;;;10.84;64.54;99705.00;5038168;28;19921;-81
2022/11/19 03:28:45;;;;;;;;;;;;;;;10.92;63.86;99713.03;5020397;28;19917;-81
2022/11/19 03:31:31;;;;;;;;;;;;;;;10.79;63.80;99714.19;5034722;28;20386;-81
2022/11/19 03:34:17;;;;;;;;;;;;;;;10.66;64.23;99704.47;5034989;28;19917;-81
2022/11/19 03:37:03;;;;;;;;;;;;;;;10.44;64.54;99702.97;5035054;28;19917;-81
2022/11/19 03:39:49;;;;;;;;;;;;;;;10.57;64.83;99709.19;5039981;28;19917;-80
2022/11/19 03:42:34;;;;;;;;;;;;;;;10.67;64.20;99711.47;5019553;28;19932;-79
2022/11/19 03:45:21;;;;;;;;;;;;;;;10.65;64.57;99711.03;5034569;28;19921;-81
2022/11/19 03:48:05;;;;;;;;;;;;;;;10.65;64.97;99716.47;5036243;28;19917;-77
2022/11/19 03:50:53;;;;;;;;;;;;;;;10.86;64.83;99708.19;5033971;28;19917;-82
2022/11/19 03:53:38;;;;;;;;;;;;;;;10.60;64.57;99700.38;5037920;28;19917;-82
2022/11/19 03:56:27;;;;;;;;;;;;;;;10.56;64.47;99705.72;5036045;28;19921;-84
2022/11/19 03:59:12;;;;;;;;;;;;;;;10.57;64.89;99709.19;5039852;28;20056;-78
2022/11/19 04:02:00;;;;;;;;;;;;;;;10.44;65.20;99708.41;5036037;28;20309;-78
2022/11/19 04:04:45;;;;;;;;;;;;;;;10.26;65.69;99707.81;5020147;28;19921;-79
2022/11/19 04:07:29;;;;;;;;;;;;;;;10.44;65.27;99715.75;5014493;28;19918;-79
2022/11/19 04:10:14;;;;;;;;;;;;;;;10.39;65.03;99710.56;5020178;28;19917;-81
2022/11/19 04:12:59;;;;;;;;;;;;;;;10.31;65.86;99708.75;5019362;28;19917;-80
2022/11/19 04:15:43;;;;;;;;;;;;;;;10.44;64.86;99711.13;5015642;28;19917;-81
2022/11/19 04:18:28;;;;;;;;;;;;;;;10.36;64.58;99711.25;5020904;28;19918;-81
2022/11/19 04:21:13;;;;;;;;;;;;;;;10.39;64.07;99713.28;5025860;28;19921;-80
2022/11/19 04:23:57;;;;;;;;;;;;;;;10.21;64.01;99705.31;5036056;28;20389;-80
2022/11/19 04:26:41;;;;;;;;;;;;;;;10.05;64.04;99707.09;5035605;28;19921;-80
2022/11/19 04:29:26;;;;;;;;;;;;;;;10.10;64.00;99704.16;5030103;28;19917;-80
2022/11/19 04:32:10;;;;;;;;;;;;;;;9.96;64.18;99711.00;5043657;28;19917;-81
2022/11/19 04:34:55;;;;;;;;;;;;;;;9.99;63.29;99718.47;5035801;28;19917;-81
2022/11/19 04:37:39;;;;;;;;;;;;;;;9.89;63.31;99714.28;5035347;28;20317;-79
2022/11/19 04:40:24;;;;;;;;;;;;;;;9.93;63.30;99709.75;5035849;28;19917;-80
2022/11/19 04:43:08;;;;;;;;;;;;;;;10.01;62.83;99708.06;5036006;28;19917;-81
2022/11/19 04:45:52;;;;;;;;;;;;;;;9.97;62.71;99710.66;5033055;28;19925;-81
2022/11/19 04:48:37;;;;;;;;;;;;;;;10.14;62.19;99718.63;5035101;28;19917;-81
2022/11/19 04:51:21;;;;;;;;;;;;;;;10.02;62.54;99718.59;5029571;28;19917;-80
2022/11/19 04:54:07;;;;;;;;;;;;;;;9.86;63.03;99714.94;5031821;28;19917;-78
2022/11/19 04:56:52;;;;;;;;;;;;;;;9.83;63.10;99721.84;5034188;28;19917;-80
2022/11/19 04:59:36;;;;;;;;;;;;;;;9.93;62.78;99725.25;5034067;28;19917;-78
2022/11/19 05:02:20;;;;;;;;;;;;;;;9.88;62.69;99727.06;5037142;28;19925;-80
2022/11/19 05:05:05;;;;;;;;;;;;;;;9.93;62.49;99736.91;5048973;28;19921;-81
2022/11/19 05:07:50;;;;;;;;;;;;;;;9.91;62.17;99728.28;5018762;28;19921;-79
2022/11/19 05:10:34;;;;;;;;;;;;;;;9.97;62.48;99726.97;5033838;28;19917;-80
2022/11/19 05:13:18;;;;;;;;;;;;;;;9.93;62.12;99731.47;5035823;28;20382;-78
2022/11/19 05:16:03;;;;;;;;;;;;;;;9.83;62.46;99742.75;5032330;28;20298;-80
2022/11/19 05:18:47;;;;;;;;;;;;;;;9.85;62.49;99744.00;5032305;28;19917;-79
2022/11/19 05:21:32;;;;;;;;;;;;;;;9.81;62.45;99736.84;5030974;28;19917;-78
2022/11/19 05:24:17;;;;;;;;;;;;;;;10.01;62.17;99744.16;5027902;28;19917;-80
2022/11/19 05:27:01;;;;;;;;;;;;;;;9.84;62.56;99750.56;5033759;28;19921;-80
2022/11/19 05:29:46;;;;;;;;;;;;;;;9.90;62.89;99758.50;5022191;28;19917;-80
2022/11/19 05:32:31;;;;;;;;;;;;;;;9.84;63.14;99771.50;5023501;28;20387;-80
2022/11/19 05:35:17;;;;;;;;;;;;;;;10.05;63.26;99766.84;5032486;28;19918;-80
2022/11/19 05:38:07;;;;;;;;;;;;;;;9.98;63.27;99765.78;5033326;28;19917;-80
2022/11/19 05:40:51;;;;;;;;;;;;;;;9.97;62.77;99769.63;5020440;28;20382;-79
2022/11/19 05:43:36;;;;;;;;;;;;;;;9.87;63.28;99770.81;5054142;28;20336;-80
2022/11/19 05:46:20;;;;;;;;;;;;;;;9.93;63.38;99769.50;5028802;28;20301;-81
2022/11/19 05:49:05;;;;;;;;;;;;;;;9.83;63.05;99770.69;5032372;28;19917;-80
2022/11/19 05:51:49;;;;;;;;;;;;;;;9.67;62.75;99769.72;5028046;28;19917;-80
2022/11/19 05:54:34;;;;;;;;;;;;;;;9.72;62.53;99771.44;5022966;28;19917;-79
2022/11/19 05:57:18;;;;;;;;;;;;;;;9.92;61.94;99761.69;5041164;28;19925;-80
2022/11/19 06:00:04;;;;;;;;;;;;;;;9.95;62.16;99769.16;5024451;28;19922;-80
2022/11/19 06:02:56;;;;;;;;;;;;;;;9.66;62.48;99773.56;5029820;28;19917;-79
2022/11/19 06:05:41;;;;;;;;;;;;;;;9.72;62.32;99776.88;5029516;28;19925;-80
2022/11/19 06:08:25;;;;;;;;;;;;;;;9.72;62.13;99785.00;5027390;28;20425;-80
2022/11/19 06:11:46;;;;;;;;;;;;;;;9.63;61.60;99776.16;5034102;28;20305;-80
2022/11/19 06:14:15;;;;;;;;;;;;;;;9.50;62.04;99782.66;5031196;28;19917;-79
2022/11/19 06:17:00;;;;;;;;;;;;;;;9.42;62.25;99790.50;5032407;28;19917;-79
2022/11/19 06:19:45;;;;;;;;;;;;;;;9.51;62.62;99786.94;5034651;28;20393;-79
2022/11/19 06:22:29;;;;;;;;;;;;;;;9.42;62.46;99785.09;5013165;28;19918;-78
2022/11/19 06:25:13;;;;;;;;;;;;;;;9.34;62.49;99783.22;5031756;28;19921;-79
2022/11/19 06:27:57;;;;;;;;;;;;;;;9.49;61.69;99781.84;5031859;28;19917;-79
2022/11/19 06:30:42;;;;;;;;;;;;;;;9.35;61.95;99789.44;5032362;28;19917;-79
2022/11/19 06:33:26;;;;;;;;;;;;;;;9.27;62.26;99791.09;5032089;28;19917;-77
2022/11/19 06:36:11;;;;;;;;;;;;;;;8.97;63.43;99786.78;5035752;28;19924;-78
2022/11/19 06:38:56;;;;;;;;;;;;;;;8.58;64.82;99791.41;5035742;28;19917;-77
2022/11/19 06:41:40;;;;;;;;;;;;;;;8.43;65.33;99789.22;5037887;28;19917;-77
2022/11/19 06:44:24;;;;;;;;;;;;;;;10.75;61.80;99794.06;5055960;28;19917;-76
2022/11/19 06:47:09;;;;;;;;;;;;;;;9.90;61.05;99791.91;5032699;28;19921;-76
2022/11/19 06:49:53;;;;;;;;;;;;;;;9.57;61.74;99793.75;5044195;28;19921;-80
2022/11/19 06:52:37;;;;;;;;;;;;;;;10.09;60.80;99794.13;5046027;28;19917;-80
2022/11/19 06:55:22;;;;;;;;;;;;;;;10.21;60.94;99805.03;5037314;28;19916;-80
2022/11/19 06:58:07;;;;;;;;;;;;;;;10.15;59.85;99804.44;5045064;28;19917;-80
2022/11/19 07:00:52;;;;;;;;;;;;;;;10.42;59.08;99804.97;5044630;28;19917;-79
2022/11/19 07:03:36;;;;;;;;;;;;;;;10.41;59.00;99806.13;5045651;28;19925;-80
2022/11/19 07:06:21;;;;;;;;;;;;;;;10.31;59.02;99803.84;5048327;28;19921;-78
2022/11/19 07:09:05;;;;;;;;;;;;;;;10.65;58.12;99808.91;5051838;28;19921;-77
2022/11/19 07:11:49;;;;;;;;;;;;;;;10.24;58.15;99810.63;5046868;28;19917;-78
2022/11/19 07:14:34;;;;;;;;;;;;;;;10.09;59.12;99808.50;5039964;28;19917;-78
2022/11/19 07:17:19;;;;;;;;;;;;;;;10.57;57.51;99816.00;5044770;28;19924;-79
2022/11/19 07:20:04;;;;;;;;;;;;;;;10.82;57.99;99810.63;5040085;28;19921;-78
2022/11/19 07:22:48;;;;;;;;;;;;;;;10.55;58.14;99806.63;5050181;28;19917;-79
2022/11/19 07:25:33;;;;;;;;;;;;;;;10.89;57.39;99816.28;5037862;28;20682;-79
2022/11/19 07:28:17;;;;;;;;;;;;;;;10.72;57.07;99811.84;5045530;28;19917;-79
2022/11/19 07:31:05;;;;;;;;;;;;;;;11.14;57.48;99817.88;5045280;28;19917;-79
2022/11/19 07:33:50;;;;;;;;;;;;;;;12.05;57.70;99821.00;5041220;28;19917;-79
2022/11/19 07:36:35;;;;;;;;;;;;;;;12.09;57.03;99819.97;5041097;28;19917;-79
2022/11/19 07:39:20;;;;;;;;;;;;;;;12.98;59.81;99820.38;5033232;28;19924;-76
2022/11/19 07:45:10;;;;;;;;;;;;;;;11.82;54.94;99827.00;5035447;28;19921;-83
2022/11/19 07:47:54;;;;;;;;;;;;;;;11.08;57.34;99825.47;5032516;28;19917;-82
2022/11/19 07:50:39;;;;;;;;;;;;;;;10.62;59.04;99828.59;5028612;28;20297;-80
2022/11/19 07:53:24;;;;;;;;;;;;;;;10.51;60.13;99835.59;5034649;28;19917;-80
2022/11/19 07:56:08;;;;;;;;;;;;;;;10.38;60.24;99831.25;5035131;28;20302;-79
2022/11/19 07:58:52;;;;;;;;;;;;;;;10.22;62.01;99837.31;5034685;28;19917;-79
2022/11/19 08:01:37;;;;;;;;;;;;;;;10.44;61.54;99833.44;5038199;28;19917;-80
2022/11/19 08:04:23;;;;;;;;;;;;;;;10.72;60.53;99834.38;5035962;28;19917;-79
2022/11/19 08:07:08;;;;;;;;;;;;;;;10.53;61.50;99833.31;5025263;28;19921;-79
2022/11/19 08:09:52;;;;;;;;;;;;;;;10.53;61.41;99842.28;5033713;28;19917;-80
2022/11/19 08:12:36;;;;;;;;;;;;;;;10.68;61.98;99847.06;5029375;28;20324;-79
2022/11/19 08:15:21;;;;;;;;;;;;;;;10.97;61.87;99850.75;5019265;28;19917;-77
2022/11/19 08:18:11;;;;;;;;;;;;;;;11.15;61.96;99852.91;5034257;28;19917;-79
2022/11/19 08:21:01;;;;;;;;;;;;;;;11.30;61.62;99853.34;5031212;28;19918;-77
2022/11/19 08:23:45;;;;;;;;;;;;;;;11.44;60.55;99857.31;5020078;28;19917;-80
2022/11/19 08:26:30;;;;;;;;;;;;;;;11.49;61.60;99856.28;5041588;28;20318;-79
2022/11/19 08:29:15;;;;;;;;;;;;;;;11.68;61.49;99847.53;5035826;28;19918;-79
2022/11/19 08:32:00;;;;;;;;;;;;;;;11.64;61.47;99862.97;5033813;28;20389;-79
2022/11/19 08:34:44;;;;;;;;;;;;;;;11.58;60.85;99865.91;5036091;28;20561;-78
2022/11/19 08:37:29;;;;;;;;;;;;;;;11.64;61.07;99866.47;5033866;28;19921;-77
2022/11/19 08:40:13;;;;;;;;;;;;;;;11.71;62.76;99868.63;5032053;28;19921;-80
2022/11/19 08:42:58;;;;;;;;;;;;;;;11.77;64.52;99861.84;5035896;28;19917;-79
2022/11/19 08:45:47;;;;;;;;;;;;;;;11.98;64.07;99873.38;5027776;28;19921;-78
2022/11/19 08:48:32;;;;;;;;;;;;;;;12.26;63.75;99873.38;5037921;28;19938;-80
2022/11/19 08:51:16;;;;;;;;;;;;;;;12.30;63.60;99880.53;5033494;28;20325;-80
2022/11/19 08:54:00;;;;;;;;;;;;;;;12.34;63.55;99886.09;5030684;28;19917;-79
2022/11/19 08:56:45;;;;;;;;;;;;;;;12.41;63.15;99892.53;5032889;28;19916;-79
2022/11/19 08:59:29;;;;;;;;;;;;;;;12.54;63.00;99895.22;5028674;28;20313;-79
2022/11/19 09:02:14;;;;;;;;;;;;;;;12.62;62.34;99892.31;5034867;28;19921;-79
2022/11/19 09:04:58;;;;;;;;;;;;;;;12.59;62.26;99903.94;5033295;28;20449;-79
2022/11/19 09:07:42;;;;;;;;;;;;;;;12.44;61.16;99902.72;5028482;28;20317;-79
2022/11/19 09:10:27;;;;;;;;;;;;;;;12.38;63.12;99908.78;5021155;28;19917;-79
2022/11/19 09:13:11;;;;;;;;;;;;;;;12.37;64.63;99907.19;5030601;28;20305;-78
2022/11/19 09:15:56;;;;;;;;;;;;;;;12.24;64.95;99911.13;5035745;28;19917;-78
2022/11/19 09:18:41;;;;;;;;;;;;;;;12.80;63.64;99914.59;5013451;28;19921;-78
2022/11/19 09:21:25;;;;;;;;;;;;;;;12.98;60.40;99913.16;5027918;28;19917;-79
2022/11/19 09:24:10;;;;;;;;;;;;;;;13.58;60.23;99922.06;5013334;28;19917;-79
2022/11/19 09:26:54;;;;;;;;;;;;;;;13.62;59.16;99918.25;5027292;28;19929;-81
2022/11/19 09:29:38;;;;;;;;;;;;;;;13.69;59.87;99918.44;5027064;28;19918;-79
2022/11/19 09:32:23;;;;;;;;;;;;;;;14.11;58.53;99917.81;5016120;28;19917;-80
2022/11/19 09:35:07;;;;;;;;;;;;;;;13.95;59.21;99909.66;5016381;28;19917;-80
2022/11/19 09:37:52;;;;;;;;;;;;;;;13.88;59.50;99908.69;5016350;28;20301;-80
2022/11/19 09:40:36;;;;;;;;;;;;;;;14.10;59.44;99910.75;5019718;28;19918;-80
2022/11/19 09:43:33;;;;;;;;;;;;;;;14.03;59.77;99907.84;5030084;28;20385;-80
2022/11/19 09:46:23;;;;;;;;;;;;;;;14.09;60.15;99907.22;5033410;28;19921;-80
2022/11/19 09:49:12;;;;;;;;;;;;;;;14.32;59.58;99906.53;5035418;28;19918;-80
2022/11/19 09:52:02;;;;;;;;;;;;;;;14.75;58.61;99910.91;5032770;28;20397;-79
2022/11/19 09:54:55;;;;;;;;;;;;;;;14.91;57.21;99914.34;5047103;28;20305;-80
2022/11/19 09:57:43;;;;;;;;;;;;;;;15.13;56.69;99904.56;5037280;28;19917;-78
2022/11/19 10:00:29;;;;;;;;;;;;;;;14.91;58.01;99908.88;5034478;28;19917;-81
2022/11/19 10:03:14;;;;;;;;;;;;;;;15.05;56.84;99919.28;5032977;28;20293;-80
2022/11/19 10:05:59;;;;;;;;;;;;;;;15.17;57.00;99911.69;5035620;28;19921;-80
2022/11/19 10:08:46;;;;;;;;;;;;;;;14.78;58.65;99907.47;5034100;28;19921;-79
2022/11/19 10:11:40;;;;;;;;;;;;;;;14.64;59.47;99913.44;5043374;28;20185;-79
2022/11/19 10:14:31;;;;;;;;;;;;;;;14.75;58.64;99905.44;5043988;28;20305;-78
2022/11/19 10:17:18;;;;;;;;;;;;;;;14.61;59.01;99896.97;5032853;28;19917;-79
2022/11/19 10:20:09;;;;;;;;;;;;;;;14.61;59.00;99892.28;5037722;28;19917;-79
2022/11/19 10:22:57;;;;;;;;;;;;;;;14.71;58.77;99893.63;5037549;28;19920;-77
2022/11/19 10:25:43;;;;;;;;;;;;;;;14.69;58.84;99896.72;5035157;28;19917;-79
2022/11/19 10:28:35;;;;;;;;;;;;;;;14.60;58.85;99896.16;5031987;28;20302;-79
2022/11/19 10:31:34;;;;;;;;;;;;;;;14.56;58.41;99887.09;5037554;28;20394;-79
2022/11/19 10:34:28;;;;;;;;;;;;;;;14.54;58.68;99890.19;5047253;28;19925;-80
2022/11/19 10:37:17;;;;;;;;;;;;;;;14.44;58.79;99888.03;5037253;28;19917;-80
2022/11/19 10:40:06;;;;;;;;;;;;;;;14.64;59.03;99883.34;5038368;28;19917;-77
2022/11/19 10:43:03;;;;;;;;;;;;;;;14.69;59.18;99879.50;5035025;28;19917;-77
2022/11/19 10:45:48;;;;;;;;;;;;;;;14.55;58.94;99875.38;5035549;28;19917;-78
2022/11/19 10:48:36;;;;;;;;;;;;;;;14.69;58.72;99871.31;5036742;28;19917;-78
2022/11/19 10:51:27;;;;;;;;;;;;;;;14.88;58.69;99865.81;5038623;28;19917;-79
2022/11/19 10:54:21;;;;;;;;;;;;;;;15.05;58.70;99859.03;5032743;28;20378;-78
2022/11/19 10:57:12;;;;;;;;;;;;;;;15.25;57.04;99850.38;5033526;28;19917;-79
2022/11/19 10:59:56;;;;;;;;;;;;;;;15.30;57.24;99847.31;5036149;28;19917;-78
2022/11/19 11:02:44;;;;;;;;;;;;;;;15.25;57.59;99844.09;5035642;28;19921;-79
2022/11/19 11:05:29;;;;;;;;;;;;;;;15.39;57.91;99833.34;5031769;28;20390;-79
2022/11/19 11:08:14;;;;;;;;;;;;;;;15.60;57.14;99825.47;5036764;28;19929;-78
2022/11/19 11:10:59;;;;;;;;;;;;;;;15.68;56.54;99824.44;5039549;28;19917;-78
2022/11/19 11:16:47;;;;;;;;;;;;;;;15.87;57.07;99815.28;5031915;28;19917;-79
2022/11/19 11:19:32;;;;;;;;;;;;;;;15.68;56.21;99813.47;5032963;28;19917;-78
2022/11/19 11:22:18;;;;;;;;;;;;;;;15.59;55.54;99812.16;5048064;28;19917;-77
2022/11/19 11:25:02;;;;;;;;;;;;;;;15.36;55.35;99814.94;5033243;28;19918;-76
2022/11/19 11:28:09;;;;;;;;;;;;;;;15.22;56.17;99817.47;5076463;22;19929;-83
2022/11/19 11:30:56;;;;;;;;;;;;;;;15.37;55.64;99808.28;5081189;28;19920;-85
2022/11/19 11:33:52;;;;;;;;;;;;;;;15.36;56.29;99796.53;5063798;28;19920;-83
2022/11/19 11:36:37;;;;;;;;;;;;;;;15.36;56.20;99796.53;5085051;28;19916;-85
2022/11/19 11:39:29;;;;;;;;;;;;;;;15.23;56.41;99792.44;5082881;28;20400;-84
2022/11/19 11:42:16;;;;;;;;;;;;;;;15.38;56.20;99788.75;5073683;28;19916;-84
2022/11/19 11:45:02;;;;;;;;;;;;;;;15.37;55.74;99780.91;5081536;28;19916;-86
2022/11/19 11:47:46;;;;;;;;;;;;;;;15.17;55.69;99774.75;5067361;28;19920;-84
2022/11/19 11:50:31;;;;;;;;;;;;;;;15.44;56.42;99767.28;5079212;28;19920;-85
2022/11/19 11:53:26;;;;;;;;;;;;;;;15.35;55.82;99759.34;5069681;28;19917;-86
2022/11/19 11:56:11;;;;;;;;;;;;;;;15.37;55.18;99753.50;5070687;28;19917;-86
2022/11/19 11:59:12;;;;;;;;;;;;;;;15.24;55.28;99743.91;5072747;28;19917;-86
2022/11/19 12:02:00;;;;;;;;;;;;;;;15.27;55.05;99740.44;5069986;28;19916;-86
2022/11/19 12:04:45;;;;;;;;;;;;;;;15.04;58.75;99731.50;5063076;28;19916;-87
2022/11/19 12:07:30;;;;;;;;;;;;;;;14.67;61.35;99734.84;5068857;28;19924;-85
2022/11/19 12:10:23;;;;;;;;;;;;;;;14.68;60.47;99717.25;5072461;28;19916;-86
2022/11/19 12:13:24;;;;;;;;;;;;;;;14.79;59.86;99720.16;5069532;28;20397;-86
2022/11/19 12:16:17;;;;;;;;;;;;;;;14.72;59.57;99717.34;5081574;28;19916;-86
2022/11/19 12:19:05;;;;;;;;;;;;;;;14.63;60.10;99714.06;5065853;28;19916;-86
2022/11/19 12:21:55;;;;;;;;;;;;;;;14.31;62.09;99711.56;5073119;28;20512;-87
2022/11/19 12:24:42;;;;;;;;;;;;;;;14.53;60.97;99710.78;5071030;28;19917;-86
2022/11/19 12:27:40;;;;;;;;;;;;;;;14.67;60.86;99709.44;5087753;28;19921;-87
2022/11/19 12:30:29;;;;;;;;;;;;;;;14.25;61.91;99709.47;5079883;28;20328;-86
2022/11/19 12:33:21;;;;;;;;;;;;;;;14.37;62.26;99712.06;5083978;28;19917;-85
2022/11/19 12:36:29;;;;;;;;;;;;;;;14.27;62.42;99702.50;5080083;28;19916;-85
2022/11/19 12:39:14;;;;;;;;;;;;;;;14.16;63.72;99701.53;5069409;28;19917;-85
2022/11/19 12:42:01;;;;;;;;;;;;;;;14.26;63.42;99703.66;5067610;28;20192;-85
2022/11/19 12:45:04;;;;;;;;;;;;;;;14.18;61.93;99698.41;5071562;28;20374;-85
2022/11/19 12:48:07;;;;;;;;;;;;;;;14.19;62.44;99703.53;5079405;28;19920;-85
2022/11/19 12:50:56;;;;;;;;;;;;;;;14.27;64.39;99697.03;5066097;28;19916;-85
2022/11/19 12:53:56;;;;;;;;;;;;;;;14.12;64.31;99700.66;5070028;28;19916;-85
2022/11/19 12:56:45;;;;;;;;;;;;;;;13.96;64.38;99691.78;5066578;28;19920;-85
2022/11/19 12:59:42;;;;;;;;;;;;;;;14.08;64.67;99688.88;5069742;28;19921;-86
2022/11/19 13:02:42;;;;;;;;;;;;;;;13.97;64.33;99687.88;5068075;28;19916;-85
2022/11/19 13:05:30;;;;;;;;;;;;;;;13.93;64.08;99685.09;5066227;28;19916;-85
2022/11/19 13:08:37;;;;;;;;;;;;;;;13.81;65.79;99696.19;5078968;28;19920;-86
2022/11/19 13:11:35;;;;;;;;;;;;;;;13.79;66.17;99697.69;5057878;28;19921;-85
2022/11/19 13:14:38;;;;;;;;;;;;;;;13.70;66.23;99696.00;5081647;28;19924;-86
2022/11/19 13:17:35;;;;;;;;;;;;;;;13.62;66.63;99699.72;5073174;28;19916;-84
2022/11/19 13:20:19;;;;;;;;;;;;;;;13.60;65.99;99704.78;5060050;28;19921;-87
2022/11/19 13:23:05;;;;;;;;;;;;;;;13.66;65.90;99699.81;5067260;28;20373;-85
2022/11/19 13:25:54;;;;;;;;;;;;;;;13.58;66.42;99689.88;5069077;28;20291;-84
2022/11/19 13:28:44;;;;;;;;;;;;;;;13.63;65.28;99698.56;5072391;28;19921;-84
2022/11/19 13:31:49;;;;;;;;;;;;;;;13.71;65.45;99697.53;5084939;28;19917;-84
2022/11/19 13:34:48;;;;;;;;;;;;;;;13.74;65.36;99695.25;5065013;28;19920;-84
2022/11/19 13:37:39;;;;;;;;;;;;;;;13.66;65.82;99695.09;5064565;28;20380;-85
2022/11/19 13:40:31;;;;;;;;;;;;;;;13.62;66.58;99694.25;5070423;28;19916;-85
2022/11/19 13:46:27;;;;;;;;;;;;;;;13.61;66.94;99691.91;5048707;28;19917;-85
2022/11/19 13:49:17;;;;;;;;;;;;;;;13.63;66.30;99695.84;5072975;28;19917;-85
2022/11/19 13:52:06;;;;;;;;;;;;;;;13.67;65.45;99698.63;5068457;28;20540;-86
2022/11/19 13:54:51;;;;;;;;;;;;;;;13.67;65.58;99698.63;5084836;28;19916;-87
2022/11/19 13:57:39;;;;;;;;;;;;;;;13.59;66.15;99702.38;5063981;28;19916;-88
2022/11/19 14:00:25;;;;;;;;;;;;;;;13.62;66.92;99698.91;5085303;28;19916;-87
2022/11/19 14:03:29;;;;;;;;;;;;;;;13.61;67.49;99709.06;5066235;28;19920;-86
2022/11/19 14:06:23;;;;;;;;;;;;;;;13.69;67.84;99705.34;5067375;28;19917;-85
2022/11/19 14:09:26;;;;;;;;;;;;;;;13.64;68.32;99713.81;5063985;28;19916;-85
2022/11/19 14:12:26;;;;;;;;;;;;;;;13.48;68.60;99710.38;5083597;28;19916;-86
2022/11/19 14:27:51;;;;;;;;;;;;;;;13.73;68.56;99715.53;5074804;28;19921;-82
2022/11/19 14:30:56;;;;;;;;;;;;;;;13.73;68.58;99710.06;5076310;28;20293;-82
2022/11/19 14:33:46;;;;;;;;;;;;;;;13.78;68.72;99715.25;5073999;28;19920;-81
2022/11/19 14:36:42;;;;;;;;;;;;;;;13.81;68.90;99725.47;5062443;28;19917;-82
2022/11/19 14:39:38;;;;;;;;;;;;;;;13.82;69.04;99718.81;5059453;28;19916;-82
2022/11/19 14:42:23;;;;;;;;;;;;;;;13.84;69.04;99727.47;5060380;28;19917;-81
2022/11/19 14:45:07;;;;;;;;;;;;;;;13.83;69.21;99734.88;5064725;28;19924;-83
2022/11/19 14:48:01;;;;;;;;;;;;;;;13.82;69.30;99735.22;5068085;28;19940;-82
2022/11/19 14:50:56;;;;;;;;;;;;;;;13.82;69.31;99740.69;5068218;28;20305;-83
2022/11/19 14:53:58;;;;;;;;;;;;;;;13.81;69.33;99741.84;5068490;28;19921;-82
2022/11/19 14:56:45;;;;;;;;;;;;;;;13.80;69.50;99735.59;5073311;28;20293;-83
2022/11/19 14:59:33;;;;;;;;;;;;;;;13.79;69.54;99727.75;5078006;28;19921;-83
2022/11/19 15:02:23;;;;;;;;;;;;;;;13.80;69.67;99734.81;5065423;28;19916;-83
2022/11/19 15:05:16;;;;;;;;;;;;;;;13.82;69.65;99736.00;5078302;28;19916;-84
2022/11/19 15:08:16;;;;;;;;;;;;;;;13.81;69.66;99739.13;5076699;28;19920;-82
2022/11/19 15:11:05;;;;;;;;;;;;;;;13.84;69.72;99743.88;5084964;28;19916;-84